Time;durP1;ratioP1;P1;durP2;ratioP2;P2;SDS_P1;SDS_P2;PMS_P1;PMS_P2;Temp;Humidity;BMP_temperature;BMP_pressure;BME280_temperature;BME280_humidity;BME280_pressure;Samples;Min_cycle;Max_cycle;Signal;HPM_P1;HPM_P2
2023/06/25 00:02:16;;;;;;;4.80;2.43;;;;;;;24.83;53.02;100543.22;5041252;28;20106;-62
2023/06/25 00:04:47;;;;;;;5.53;3.23;;;;;;;24.96;52.23;100544.91;5030856;28;20052;-61
2023/06/25 00:07:17;;;;;;;4.50;2.40;;;;;;;25.02;50.63;100540.09;5041393;28;20538;-58
2023/06/25 00:09:54;;;;;;;3.40;2.60;;;;;;;25.06;51.46;100530.84;5030822;28;20061;-60
2023/06/25 00:12:25;;;;;;;4.07;2.40;;;;;;;24.95;50.22;100500.41;5041035;28;20525;-60
2023/06/25 00:14:56;;;;;;;5.53;2.43;;;;;;;25.26;50.59;100535.66;5030213;28;20057;-60
2023/06/25 00:17:28;;;;;;;4.90;2.30;;;;;;;25.30;50.71;100531.78;5040997;28;20989;-62
2023/06/25 00:20:00;;;;;;;5.60;2.50;;;;;;;25.29;50.99;100518.53;5029975;28;20048;-61
2023/06/25 00:22:30;;;;;;;4.73;2.07;;;;;;;25.40;50.17;100532.78;5040555;28;20048;-61
2023/06/25 00:25:01;;;;;;;7.13;2.30;;;;;;;25.44;50.84;100527.25;5029920;28;20092;-58
2023/06/25 00:27:31;;;;;;;3.30;2.27;;;;;;;25.54;50.77;100517.56;5040049;28;20110;-60
2023/06/25 00:30:02;;;;;;;3.53;1.87;;;;;;;25.63;49.08;100522.19;5030336;28;20052;-60
2023/06/25 00:32:35;;;;;;;6.37;2.40;;;;;;;25.68;48.29;100522.69;5041161;28;20145;-59
2023/06/25 00:35:06;;;;;;;5.10;2.87;;;;;;;25.76;49.00;100519.44;5030018;28;20048;-58
2023/06/25 00:37:37;;;;;;;8.60;2.87;;;;;;;25.84;48.86;100517.06;5029999;28;20136;-61
2023/06/25 00:40:09;;;;;;;7.20;2.37;;;;;;;25.82;49.01;100500.25;5039979;28;20852;-60
2023/06/25 00:42:43;;;;;;;6.30;2.57;;;;;;;25.95;48.79;100521.59;5029468;28;20052;-60
2023/06/25 00:45:15;;;;;;;4.53;2.30;;;;;;;25.95;48.39;100516.25;5039771;28;20055;-61
2023/06/25 00:47:47;;;;;;;5.90;2.53;;;;;;;25.51;49.37;100433.03;5030124;28;20056;-59
2023/06/25 00:50:21;;;;;;;5.87;2.67;;;;;;;26.05;49.04;100514.56;5039429;28;20147;-59
2023/06/25 00:52:52;;;;;;;4.80;2.30;;;;;;;26.03;48.47;100513.81;5029308;28;20059;-59
2023/06/25 00:55:23;;;;;;;6.17;2.30;;;;;;;26.02;48.10;100502.28;5039646;28;20152;-57
2023/06/25 00:57:56;;;;;;;4.57;2.27;;;;;;;26.13;47.91;100512.13;5029688;28;20048;-58
2023/06/25 01:00:28;;;;;;;5.13;2.13;;;;;;;26.19;48.43;100498.28;5039457;28;20055;-58
2023/06/25 01:03:07;;;;;;;5.60;2.07;;;;;;;26.18;48.78;100507.28;5029467;28;20447;-57
2023/06/25 01:05:43;;;;;;;8.45;2.00;;;;;;;26.32;50.13;100510.72;5029580;28;20764;-58
2023/06/25 01:08:18;;;;;;;6.33;2.30;;;;;;;26.37;49.31;100512.06;5037011;28;20052;-60
2023/06/25 01:10:49;;;;;;;6.43;2.67;;;;;;;26.31;47.60;100507.19;5028404;28;20093;-59
2023/06/25 01:13:19;;;;;;;6.27;2.67;;;;;;;26.34;48.55;100511.47;5039812;28;20052;-61
2023/06/25 01:15:50;;;;;;;6.10;2.30;;;;;;;26.42;48.64;100515.22;5028576;28;20109;-60
2023/06/25 01:18:22;;;;;;;5.17;2.13;;;;;;;26.53;48.24;100503.69;5039564;28;20059;-60
2023/06/25 01:20:56;;;;;;;6.73;2.00;;;;;;;26.56;48.29;100495.41;5029322;28;20086;-60
2023/06/25 01:23:29;;;;;;;6.57;2.23;;;;;;;26.58;48.54;100498.81;5019972;28;20045;-63
2023/06/25 01:26:00;;;;;;;3.93;2.10;;;;;;;26.70;48.09;100490.78;5022998;28;20064;-60
2023/06/25 01:28:32;;;;;;;5.13;2.10;;;;;;;26.76;47.82;100492.94;5028233;28;20049;-60
2023/06/25 01:31:03;;;;;;;3.83;2.10;;;;;;;26.83;47.70;100491.47;5012802;28;20053;-60
2023/06/25 01:33:34;;;;;;;6.30;2.30;;;;;;;26.96;47.86;100492.19;5038515;28;20063;-61
2023/06/25 01:36:05;;;;;;;5.40;2.50;;;;;;;27.03;47.29;100492.53;5039835;28;20067;-62
2023/06/25 01:38:37;;;;;;;4.77;2.50;;;;;;;27.01;47.79;100492.69;5028742;28;20072;-59
2023/06/25 01:41:08;;;;;;;8.13;2.23;;;;;;;27.07;47.85;100494.84;5039132;28;20052;-58
2023/06/25 01:43:39;;;;;;;7.40;2.27;;;;;;;27.16;48.82;100487.88;5028490;28;20052;-58
2023/06/25 01:46:10;;;;;;;6.83;2.57;;;;;;;27.19;47.73;100484.13;5037652;28;20053;-59
2023/06/25 01:48:41;;;;;;;5.73;2.50;;;;;;;27.18;47.82;100485.06;5028219;28;20052;-61
2023/06/25 01:51:12;;;;;;;6.47;2.17;;;;;;;27.03;48.06;100482.69;5039152;28;20062;-61
2023/06/25 01:53:47;;;;;;;7.67;2.60;;;;;;;27.12;48.77;100481.06;5028714;28;20077;-61
2023/06/25 01:56:18;;;;;;;4.57;2.40;;;;;;;27.10;48.09;100478.50;5038370;28;20048;-60
2023/06/25 01:58:52;;;;;;;13.50;2.90;;;;;;;27.15;47.78;100485.31;5028240;28;20146;-59
2023/06/25 02:01:23;;;;;;;5.20;2.27;;;;;;;27.17;48.54;100467.28;5039006;28;20582;-61
2023/06/25 02:03:54;;;;;;;12.97;3.00;;;;;;;27.22;47.71;100470.47;5028669;28;20041;-59
2023/06/25 02:06:25;;;;;;;5.43;2.83;;;;;;;26.89;46.36;100416.78;5038748;28;20156;-60
2023/06/25 02:08:57;;;;;;;3.70;2.20;;;;;;;27.30;47.82;100484.06;5028117;28;20056;-60
2023/06/25 02:11:29;;;;;;;5.73;2.50;;;;;;;27.51;48.03;100476.94;5038949;28;20058;-61
2023/06/25 02:14:01;;;;;;;11.23;2.73;;;;;;;27.66;48.11;100484.66;5020100;28;20491;-59
2023/06/25 02:16:36;;;;;;;5.97;2.40;;;;;;;27.74;47.40;100471.44;5007007;28;20692;-58
2023/06/25 02:19:08;;;;;;;9.50;2.73;;;;;;;27.83;47.88;100470.69;5013107;28;20090;-59
2023/06/25 02:21:42;;;;;;;6.43;2.27;;;;;;;27.65;46.76;100445.38;5002933;28;20351;-60
2023/06/25 02:24:14;;;;;;;4.80;2.20;;;;;;;27.88;47.70;100468.47;5016843;28;20468;-59
2023/06/25 02:26:45;;;;;;;7.90;2.30;;;;;;;27.87;46.84;100445.25;5007393;28;20057;-58
2023/06/25 02:29:16;;;;;;;6.00;2.10;;;;;;;27.66;45.57;100447.09;5013389;28;20122;-58
2023/06/25 02:31:46;;;;;;;5.23;2.63;;;;;;;27.79;46.63;100447.72;5003665;28;20060;-59
2023/06/25 02:34:17;;;;;;;7.67;2.30;;;;;;;27.85;46.26;100447.22;5013039;28;20424;-59
2023/06/25 02:36:48;;;;;;;5.30;2.30;;;;;;;27.88;45.67;100425.50;5003296;28;20077;-59
2023/06/25 02:39:21;;;;;;;6.10;2.50;;;;;;;27.86;45.24;100427.47;5015674;28;20063;-58
2023/06/25 02:41:52;;;;;;;5.97;2.50;;;;;;;28.21;44.34;100449.53;4992317;28;20115;-60
2023/06/25 02:44:23;;;;;;;5.30;2.53;;;;;;;28.31;44.43;100443.22;5019367;28;20068;-58
2023/06/25 02:46:55;;;;;;;6.33;2.50;;;;;;;28.42;43.99;100449.50;5008651;28;20575;-59
2023/06/25 02:49:26;;;;;;;6.23;2.20;;;;;;;28.46;41.17;100450.97;5014797;28;20080;-60
2023/06/25 02:51:57;;;;;;;5.53;2.13;;;;;;;28.26;39.85;100450.84;5007385;28;20049;-60
2023/06/25 02:54:29;;;;;;;5.73;2.20;;;;;;;28.08;42.83;100457.81;5018300;28;20275;-58
2023/06/25 02:57:11;;;;;;;10.23;2.20;;;;;;;27.96;40.41;100439.09;4999883;28;20093;-59
2023/06/25 02:59:54;;;;;;;6.70;2.37;;;;;;;27.80;41.04;100453.94;5010989;28;20091;-60
2023/06/25 03:02:37;;;;;;;4.63;1.93;;;;;;;27.79;41.60;100458.47;5010652;28;20136;-60
2023/06/25 03:05:19;;;;;;;8.93;2.10;;;;;;;27.95;42.48;100458.88;5006974;28;20049;-60
2023/06/25 03:07:57;;;;;;;9.00;2.40;;;;;;;28.03;43.85;100411.69;5006876;28;20105;-59
2023/06/25 03:10:31;;;;;;;3.43;1.80;;;;;;;28.50;42.93;100452.38;5016737;28;20048;-60
2023/06/25 03:13:02;;;;;;;4.03;2.07;;;;;;;28.34;42.27;100408.03;4988698;28;20057;-60
2023/06/25 03:15:33;;;;;;;7.50;2.63;;;;;;;28.73;41.23;100453.88;5027231;28;20135;-61
2023/06/25 03:18:04;;;;;;;10.10;2.17;;;;;;;28.71;39.89;100444.25;5019498;28;20417;-59
2023/06/25 03:20:38;;;;;;;5.10;2.20;;;;;;;28.56;42.82;100450.00;5014323;28;20052;-61
2023/06/25 03:23:09;;;;;;;5.00;2.10;;;;;;;28.59;42.39;100435.44;5022418;28;20052;-59
2023/06/25 03:25:41;;;;;;;7.67;2.93;;;;;;;28.75;45.94;100434.91;5028359;28;20138;-60
2023/06/25 03:28:12;;;;;;;4.60;2.43;;;;;;;28.88;43.34;100424.75;5042067;28;20044;-60
2023/06/25 03:30:44;;;;;;;3.20;2.10;;;;;;;28.82;45.99;100419.91;5031218;28;20090;-62
2023/06/25 03:33:15;;;;;;;5.00;2.40;;;;;;;28.88;45.67;100427.44;5041892;28;20075;-61
2023/06/25 03:35:45;;;;;;;10.03;2.90;;;;;;;28.80;45.83;100428.09;5031471;28;20204;-60
2023/06/25 03:38:16;;;;;;;7.03;2.90;;;;;;;28.76;46.20;100420.47;5041201;28;20052;-60
2023/06/25 03:40:49;;;;;;;3.20;2.70;;;;;;;28.72;46.14;100419.03;5031059;28;20052;-62
2023/06/25 03:43:19;;;;;;;4.53;2.60;;;;;;;28.71;46.28;100418.19;5041221;28;20135;-60
2023/06/25 03:45:50;;;;;;;7.00;2.60;;;;;;;28.74;46.34;100417.06;5030472;28;20087;-62
2023/06/25 03:48:20;;;;;;;8.07;2.50;;;;;;;28.87;45.85;100419.50;5041330;28;20136;-59
2023/06/25 03:50:51;;;;;;;8.37;3.00;;;;;;;28.81;46.06;100421.75;5031337;28;20044;-62
2023/06/25 03:53:22;;;;;;;4.47;2.30;;;;;;;28.80;46.59;100411.97;5036047;28;20074;-61
2023/06/25 03:55:54;;;;;;;4.10;2.27;;;;;;;28.85;46.51;100410.72;5030809;28;20144;-62
2023/06/25 03:58:25;;;;;;;8.00;2.80;;;;;;;29.02;46.32;100410.03;5040923;28;20993;-60
2023/06/25 04:00:55;;;;;;;6.23;2.30;;;;;;;29.03;44.10;100414.41;5023386;28;20048;-60
2023/06/25 04:03:26;;;;;;;11.37;2.47;;;;;;;28.98;44.88;100411.28;5038167;28;20799;-62
2023/06/25 04:05:57;;;;;;;6.20;2.60;;;;;;;28.97;45.82;100399.69;5029738;28;20060;-61
2023/06/25 04:08:27;;;;;;;6.47;2.57;;;;;;;29.04;44.64;100399.97;5041045;28;20068;-62
2023/06/25 04:11:00;;;;;;;4.93;2.63;;;;;;;28.91;44.00;100367.13;5030240;28;20052;-59
2023/06/25 04:13:30;;;;;;;3.77;2.10;;;;;;;29.00;44.55;100390.47;5039850;28;20066;-62
2023/06/25 04:16:01;;;;;;;5.87;2.40;;;;;;;28.96;44.29;100383.69;5029799;28;20044;-62
2023/06/25 04:18:31;;;;;;;5.80;2.50;;;;;;;29.02;43.99;100391.19;5039838;28;20163;-61
2023/06/25 04:21:02;;;;;;;4.53;2.60;;;;;;;28.95;43.41;100381.97;5028968;28;20813;-60
2023/06/25 04:23:32;;;;;;;6.53;2.23;;;;;;;28.96;42.50;100386.38;5040831;28;21065;-63
2023/06/25 04:26:05;;;;;;;7.97;2.20;;;;;;;28.93;43.04;100386.66;5030204;28;20060;-60
2023/06/25 04:28:36;;;;;;;7.80;2.50;;;;;;;28.81;42.23;100369.81;5030768;28;20045;-62
2023/06/25 04:31:06;;;;;;;7.23;2.27;;;;;;;28.77;42.65;100369.22;5040452;28;20556;-61
2023/06/25 04:33:41;;;;;;;3.37;2.10;;;;;;;28.92;42.59;100366.97;5030106;28;20486;-62
2023/06/25 04:36:12;;;;;;;4.43;2.40;;;;;;;28.98;42.93;100370.94;5040375;28;20052;-58
2023/06/25 04:38:43;;;;;;;11.77;3.37;;;;;;;28.98;42.93;100362.88;5030699;28;20139;-62
2023/06/25 04:41:15;;;;;;;5.23;2.57;;;;;;;29.07;42.63;100355.84;5039645;28;20048;-62
2023/06/25 04:43:46;;;;;;;6.03;2.60;;;;;;;29.04;42.72;100360.47;5029781;28;20091;-64
2023/06/25 04:46:16;;;;;;;4.33;2.30;;;;;;;28.94;43.37;100348.03;5040199;28;20055;-62
2023/06/25 04:48:47;;;;;;;8.10;2.80;;;;;;;29.11;43.82;100359.94;5027890;28;20056;-61
2023/06/25 04:51:21;;;;;;;7.50;2.67;;;;;;;29.13;43.48;100353.44;5039249;28;20052;-62
2023/06/25 04:53:52;;;;;;;11.97;3.10;;;;;;;29.13;44.08;100348.06;5030409;28;20817;-62
2023/06/25 04:56:24;;;;;;;7.77;2.67;;;;;;;28.97;42.49;100313.59;5040086;28;20088;-61
2023/06/25 04:58:54;;;;;;;7.63;2.20;;;;;;;29.06;42.11;100344.22;5029458;28;20076;-63
2023/06/25 05:01:25;;;;;;;9.10;2.20;;;;;;;29.02;40.91;100345.47;5039709;28;20114;-62
2023/06/25 05:03:55;;;;;;;10.47;3.20;;;;;;;28.91;41.35;100326.78;5029578;28;20133;-63
2023/06/25 05:06:26;;;;;;;9.90;2.57;;;;;;;29.04;41.17;100340.78;5039441;28;20048;-63
2023/06/25 05:08:57;;;;;;;12.27;3.03;;;;;;;29.01;42.26;100333.00;5029362;28;20845;-62
2023/06/25 05:11:29;;;;;;;5.60;2.03;;;;;;;28.98;42.55;100333.28;5039688;28;20051;-61
2023/06/25 05:14:00;;;;;;;15.47;3.40;;;;;;;28.86;43.44;100310.22;5028215;28;20085;-61
2023/06/25 05:16:30;;;;;;;3.97;2.17;;;;;;;29.00;43.47;100332.13;5036644;28;21038;-61
2023/06/25 05:19:01;;;;;;;9.80;3.10;;;;;;;28.98;44.15;100328.78;5029269;28;20114;-63
2023/06/25 05:21:31;;;;;;;6.07;2.43;;;;;;;29.04;43.28;100335.41;5039145;28;20825;-61
2023/06/25 05:24:03;;;;;;;7.30;2.50;;;;;;;29.03;42.55;100342.63;5028705;28;20055;-61
2023/06/25 05:26:35;;;;;;;6.47;2.83;;;;;;;29.07;43.98;100337.84;5038296;28;20048;-62
2023/06/25 05:29:06;;;;;;;9.60;2.70;;;;;;;29.06;42.69;100335.31;5039735;28;20144;-61
2023/06/25 05:31:37;;;;;;;11.33;3.33;;;;;;;29.12;43.27;100335.56;5029516;28;20132;-62
2023/06/25 05:34:08;;;;;;;10.00;2.30;;;;;;;29.12;42.68;100330.19;5039728;28;20109;-63
2023/06/25 05:36:38;;;;;;;10.10;3.33;;;;;;;29.13;42.51;100336.41;5029285;28;20060;-60
2023/06/25 05:39:09;;;;;;;4.77;2.20;;;;;;;28.88;42.05;100316.28;5039088;28;20143;-59
2023/06/25 05:41:42;;;;;;;7.27;2.70;;;;;;;29.06;42.34;100329.94;5029503;28;20098;-63
2023/06/25 05:44:13;;;;;;;8.10;2.73;;;;;;;29.05;43.10;100329.03;5039000;28;20151;-61
2023/06/25 05:46:43;;;;;;;9.27;3.07;;;;;;;29.05;43.44;100334.41;5028412;28;20626;-59
2023/06/25 05:49:14;;;;;;;5.27;2.60;;;;;;;29.20;43.25;100335.69;5038103;28;20056;-63
2023/06/25 05:51:45;;;;;;;6.07;2.70;;;;;;;29.31;42.88;100341.94;5028664;28;20117;-62
2023/06/25 05:54:16;;;;;;;8.47;3.13;;;;;;;29.26;42.33;100309.22;5039363;28;20053;-63
2023/06/25 05:56:48;;;;;;;6.27;2.63;;;;;;;29.47;42.13;100344.88;5029445;28;20598;-62
2023/06/25 05:59:19;;;;;;;7.83;2.80;;;;;;;29.53;42.65;100355.06;5039012;28;20044;-60
2023/06/25 06:01:51;;;;;;;8.40;3.00;;;;;;;29.57;43.36;100356.44;5028141;28;20056;-62
2023/06/25 06:04:21;;;;;;;12.80;3.40;;;;;;;29.55;42.84;100353.06;5038701;28;20071;-60
2023/06/25 06:06:52;;;;;;;9.93;2.80;;;;;;;29.44;44.07;100339.78;5028448;28;20110;-62
2023/06/25 06:09:23;;;;;;;4.63;2.67;;;;;;;29.41;42.18;100350.84;5038623;28;20044;-63
2023/06/25 06:11:55;;;;;;;5.47;2.50;;;;;;;29.35;42.82;100343.31;5027302;28;20052;-60
2023/06/25 06:14:26;;;;;;;8.73;2.97;;;;;;;29.36;43.12;100347.75;5015674;28;20059;-61
2023/06/25 06:16:57;;;;;;;26.30;3.27;;;;;;;29.24;42.65;100337.13;5025546;28;20143;-60
2023/06/25 06:19:27;;;;;;;5.70;2.50;;;;;;;29.14;43.43;100330.06;5038576;28;20048;-63
2023/06/25 06:21:58;;;;;;;2.80;2.03;;;;;;;28.91;43.07;100316.03;5028511;28;20070;-61
2023/06/25 06:24:28;;;;;;;7.43;2.27;;;;;;;29.00;43.40;100320.53;5041287;28;20048;-61
2023/06/25 06:27:01;;;;;;;9.07;2.30;;;;;;;29.03;42.94;100320.25;5035252;28;20114;-62
2023/06/25 06:29:31;;;;;;;6.77;2.10;;;;;;;28.81;42.84;100292.66;5044484;28;20788;-63
2023/06/25 06:32:02;;;;;;;9.13;2.83;;;;;;;28.95;42.89;100312.06;5034968;28;20384;-63
2023/06/25 06:34:33;;;;;;;5.67;2.80;;;;;;;29.05;42.43;100318.25;5045393;28;20155;-63
2023/06/25 06:37:05;;;;;;;12.03;2.60;;;;;;;28.93;42.29;100305.97;5034455;28;20498;-60
2023/06/25 06:39:37;;;;;;;3.77;2.30;;;;;;;29.03;42.88;100309.47;5035715;28;20045;-64
2023/06/25 06:42:09;;;;;;;12.40;2.90;;;;;;;29.07;42.72;100310.94;5045125;28;20117;-62
2023/06/25 06:44:40;;;;;;;4.43;2.33;;;;;;;29.06;41.97;100314.63;5036073;28;20052;-63
2023/06/25 06:47:11;;;;;;;8.17;2.43;;;;;;;29.02;41.59;100321.25;5045535;28;20373;-62
2023/06/25 06:49:41;;;;;;;7.30;2.00;;;;;;;28.95;42.37;100317.44;5035415;28;20716;-61
2023/06/25 06:52:13;;;;;;;5.20;2.50;;;;;;;28.87;42.52;100314.59;5044776;28;20472;-62
2023/06/25 06:54:43;;;;;;;7.90;2.90;;;;;;;28.94;42.91;100307.69;5035367;28;20063;-62
2023/06/25 06:57:16;;;;;;;4.63;2.13;;;;;;;28.93;42.62;100309.53;5045223;28;20048;-59
2023/06/25 06:59:47;;;;;;;6.13;2.50;;;;;;;28.81;42.82;100295.38;5035913;28;20060;-62
2023/06/25 07:02:18;;;;;;;5.77;2.57;;;;;;;28.75;43.19;100303.97;5045372;28;20053;-65
2023/06/25 07:04:51;;;;;;;5.50;2.67;;;;;;;28.64;43.11;100306.81;5033932;28;20052;-64
2023/06/25 07:07:25;;;;;;;4.87;2.70;;;;;;;28.24;43.29;100253.16;5039597;28;20064;-61
2023/06/25 07:09:56;;;;;;;9.10;3.23;;;;;;;28.53;43.88;100280.94;5035012;28;20274;-61
2023/06/25 07:12:28;;;;;;;4.03;2.90;;;;;;;28.69;43.91;100298.34;5045359;28;20056;-60
2023/06/25 07:14:59;;;;;;;9.23;2.93;;;;;;;28.67;43.87;100301.16;5034433;27;20076;-62
2023/06/25 07:17:30;;;;;;;5.47;3.03;;;;;;;28.67;44.19;100301.16;5045573;28;20474;-61
2023/06/25 07:20:01;;;;;;;4.73;2.70;;;;;;;28.53;43.76;100290.81;5034678;28;20144;-63
2023/06/25 07:22:33;;;;;;;4.57;2.97;;;;;;;28.47;43.96;100281.47;5045261;28;21222;-64
2023/06/25 07:25:03;;;;;;;12.23;3.63;;;;;;;28.45;43.85;100298.75;5034648;28;20159;-60
2023/06/25 07:27:36;;;;;;;9.30;3.23;;;;;;;28.09;44.13;100266.97;5042610;28;20048;-60
2023/06/25 07:30:07;;;;;;;7.30;3.20;;;;;;;28.02;44.42;100243.50;5045395;28;20537;-62
2023/06/25 07:32:38;;;;;;;9.63;2.70;;;;;;;28.26;44.87;100289.63;5035655;28;20490;-62
2023/06/25 07:35:10;;;;;;;7.13;2.47;;;;;;;28.19;44.98;100288.47;5045360;28;20078;-62
2023/06/25 07:37:41;;;;;;;9.33;2.80;;;;;;;28.23;45.58;100295.28;5030621;28;20088;-61
2023/06/25 07:40:13;;;;;;;9.03;2.80;;;;;;;28.24;45.03;100286.22;5041865;28;20052;-62
2023/06/25 07:42:45;;;;;;;9.83;3.00;;;;;;;28.21;45.43;100285.66;5030960;28;20438;-63
2023/06/25 07:45:16;;;;;;;8.07;3.40;;;;;;;28.16;45.47;100283.41;5041967;28;20052;-62
2023/06/25 07:47:50;;;;;;;8.60;3.10;;;;;;;28.13;45.02;100302.44;5031007;28;20060;-63
2023/06/25 07:50:21;;;;;;;7.57;2.60;;;;;;;27.98;45.03;100290.41;5041779;28;20063;-63
2023/06/25 07:52:52;;;;;;;12.80;2.83;;;;;;;27.89;45.42;100282.19;5031358;28;20053;-61
2023/06/25 07:55:22;;;;;;;7.70;2.93;;;;;;;27.90;45.84;100296.44;5041673;28;20049;-63
2023/06/25 07:57:54;;;;;;;7.77;3.20;;;;;;;27.80;45.61;100282.97;5031564;28;20048;-63
2023/06/25 08:00:25;;;;;;;11.60;2.80;;;;;;;27.72;45.81;100269.38;5040817;28;20044;-64
2023/06/25 08:02:56;;;;;;;8.13;2.80;;;;;;;27.77;46.09;100299.34;5031220;28;20090;-61
2023/06/25 08:05:27;;;;;;;9.07;3.20;;;;;;;27.73;45.83;100292.53;5041666;28;20045;-61
2023/06/25 08:07:58;;;;;;;8.97;3.30;;;;;;;27.70;45.80;100293.66;5027901;28;20044;-61
2023/06/25 08:10:29;;;;;;;11.80;3.30;;;;;;;27.72;45.95;100285.47;5040528;28;20145;-61
2023/06/25 08:13:01;;;;;;;7.43;2.93;;;;;;;27.63;45.82;100280.91;5029043;28;20056;-62
2023/06/25 08:15:32;;;;;;;17.03;3.47;;;;;;;27.59;46.83;100282.19;5040021;28;20056;-60
2023/06/25 08:18:04;;;;;;;8.17;3.20;;;;;;;27.53;46.65;100279.06;5031064;28;20064;-62
2023/06/25 08:20:35;;;;;;;10.97;3.27;;;;;;;27.49;47.19;100285.66;5037219;28;20067;-62
2023/06/25 08:23:06;;;;;;;14.20;5.40;;;;;;;27.29;47.87;100251.66;5041450;28;20050;-62
2023/06/25 08:25:37;;;;;;;8.97;4.80;;;;;;;27.40;47.27;100281.09;5030986;28;20094;-63
2023/06/25 08:28:09;;;;;;;25.00;4.40;;;;;;;27.35;47.44;100269.06;5041200;28;20148;-61
2023/06/25 08:30:40;;;;;;;12.50;3.80;;;;;;;27.37;47.91;100280.50;5030967;28;20052;-60
2023/06/25 08:33:11;;;;;;;8.03;3.20;;;;;;;27.31;47.73;100273.84;5041074;28;20056;-63
2023/06/25 08:35:41;;;;;;;7.40;3.87;;;;;;;27.23;48.06;100289.72;5031199;28;20048;-62
2023/06/25 08:38:17;;;;;;;11.23;3.30;;;;;;;27.03;47.61;100273.50;5040874;28;20164;-63
2023/06/25 08:40:48;;;;;;;6.27;3.20;;;;;;;27.03;48.17;100278.88;5030665;28;20902;-66
2023/06/25 08:43:21;;;;;;;10.97;3.10;;;;;;;27.04;48.65;100285.94;5040195;28;20760;-61
2023/06/25 08:45:51;;;;;;;11.27;2.53;;;;;;;26.98;48.08;100282.91;5028809;28;20483;-62
2023/06/25 08:48:25;;;;;;;10.03;2.13;;;;;;;26.92;48.11;100286.97;5040317;28;20454;-61
2023/06/25 08:51:12;;;;;;;8.93;2.80;;;;;;;26.81;47.83;100287.88;5030398;28;20052;-60
2023/06/25 08:53:47;;;;;;;9.67;2.50;;;;;;;26.75;48.81;100280.34;5030685;28;20052;-63
2023/06/25 08:56:18;;;;;;;14.73;2.80;;;;;;;26.62;48.93;100288.56;5040731;28;20596;-62
2023/06/25 08:58:50;;;;;;;9.43;2.40;;;;;;;26.63;49.15;100284.91;5029854;28;20491;-63
2023/06/25 09:01:21;;;;;;;10.30;2.40;;;;;;;26.59;49.22;100290.66;5037718;28;20044;-59
2023/06/25 09:03:56;;;;;;;9.50;2.40;;;;;;;26.52;49.24;100290.28;5028401;28;21176;-66
2023/06/25 09:06:27;;;;;;;10.57;2.50;;;;;;;26.47;49.69;100292.47;5040382;28;20072;-64
2023/06/25 09:09:11;;;;;;;6.67;2.43;;;;;;;26.36;50.02;100284.47;5029476;28;20067;-66
2023/06/25 09:12:18;;;;;;;10.47;2.70;;;;;;;26.39;49.68;100305.66;5030144;28;20055;-65
2023/06/25 09:14:58;;;;;;;6.07;2.30;;;;;;;26.25;49.94;100304.94;5027385;28;20087;-63
2023/06/25 09:17:41;;;;;;;7.63;2.80;;;;;;;26.14;50.03;100312.16;5040227;28;20049;-61
2023/06/25 09:20:22;;;;;;;14.53;3.30;;;;;;;26.05;50.62;100308.41;5027973;28;20052;-64
2023/06/25 09:23:04;;;;;;;4.33;2.40;;;;;;;26.08;50.56;100313.50;5029192;28;20286;-63
2023/06/25 09:25:36;;;;;;;7.63;2.80;;;;;;;26.01;51.22;100306.97;5028071;28;20052;-64
2023/06/25 09:28:14;;;;;;;5.07;2.70;;;;;;;25.94;51.35;100311.09;5039625;28;20071;-63
2023/06/25 09:31:07;;;;;;;11.83;3.30;;;;;;;25.80;51.50;100310.31;5029075;28;20052;-61
2023/06/25 09:33:55;;;;;;;9.53;2.20;;;;;;;25.64;51.45;100304.50;5028165;28;20071;-64
2023/06/25 09:36:38;;;;;;;10.27;2.53;;;;;;;25.61;51.64;100305.59;5039122;28;20063;-64
2023/06/25 09:39:12;;;;;;;7.63;2.30;;;;;;;25.53;51.83;100317.84;5029472;28;20129;-62
2023/06/25 09:41:47;;;;;;;4.67;1.87;;;;;;;25.21;52.42;100305.16;5030751;28;20052;-63
2023/06/25 09:44:24;;;;;;;10.80;2.30;;;;;;;25.16;52.67;100326.00;5039512;28;20052;-62
2023/06/25 09:47:02;;;;;;;5.13;2.37;;;;;;;24.91;53.33;100316.31;5025406;28;20041;-63
2023/06/25 09:49:53;;;;;;;15.77;2.33;;;;;;;24.76;53.87;100323.66;5026335;28;20067;-64
2023/06/25 09:52:57;;;;;;;8.83;1.93;;;;;;;24.59;54.24;100326.75;5038606;28;20059;-65
2023/06/25 09:55:59;;;;;;;12.63;2.90;;;;;;;23.96;54.97;100257.41;5023937;28;20150;-63
2023/06/25 09:58:48;;;;;;;11.07;2.87;;;;;;;24.16;56.20;100327.19;5028047;28;20052;-62
2023/06/25 10:01:32;;;;;;;12.43;2.17;;;;;;;23.85;56.79;100313.38;5038789;28;20145;-61
2023/06/25 10:04:26;;;;;;;10.00;2.23;;;;;;;23.62;57.57;100321.16;5038318;28;21319;-61
2023/06/25 10:07:06;;;;;;;9.67;2.80;;;;;;;23.41;58.35;100328.84;5027733;28;20068;-61
2023/06/25 10:09:45;;;;;;;9.80;2.08;;;;;;;23.19;58.91;100321.44;5028854;28;20052;-63
2023/06/25 10:12:21;;;;;;;11.57;2.30;;;;;;;23.06;59.02;100317.91;5038799;28;20060;-64
2023/06/25 10:18:26;;;;;;;4.77;2.53;;;;;;;22.75;60.06;100337.72;5037990;28;20543;-60
2023/06/25 10:21:01;;;;;;;12.27;2.73;;;;;;;22.55;60.27;100323.06;5028462;28;20502;-62
2023/06/25 10:23:38;;;;;;;7.10;2.60;;;;;;;22.54;60.71;100342.63;5039156;28;20056;-63
2023/06/25 10:26:14;;;;;;;7.63;2.90;;;;;;;22.34;61.44;100355.44;5028786;28;20053;-61
2023/06/25 10:28:53;;;;;;;13.97;2.60;;;;;;;22.23;62.10;100355.25;5027143;28;20838;-63
2023/06/25 10:31:24;;;;;;;;;;;;;;;22.12;62.79;100360.38;5038981;28;20048;-63
2023/06/25 10:34:06;;;;;;;15.70;2.23;;;;;;;21.92;63.30;100357.16;5028400;28;20136;-61
2023/06/25 10:36:49;;;;;;;8.83;3.00;;;;;;;21.83;63.96;100357.72;5028265;28;20054;-63
2023/06/25 10:39:21;;;;;;;14.73;2.67;;;;;;;21.71;64.84;100369.09;5035140;28;20072;-64
2023/06/25 10:41:53;;;;;;;17.07;3.53;;;;;;;21.60;65.48;100376.91;5029273;28;20127;-62
2023/06/25 10:44:29;;;;;;;24.97;3.70;;;;;;;21.27;65.92;100348.72;5038810;28;20472;-62
2023/06/25 10:47:09;;;;;;;12.93;2.80;;;;;;;21.44;65.56;100383.13;5027830;28;20305;-63
2023/06/25 10:49:41;;;;;;;8.67;2.70;;;;;;;21.17;66.52;100351.06;5036139;28;20289;-65
2023/06/25 10:52:15;;;;;;;5.10;1.93;;;;;;;21.28;66.58;100383.16;5044009;28;20725;-63
2023/06/25 10:54:47;;;;;;;8.10;3.30;;;;;;;21.21;66.91;100388.91;5028047;28;20319;-65
2023/06/25 10:57:19;;;;;;;10.53;2.70;;;;;;;21.02;67.05;100366.09;5038507;28;20279;-63
2023/06/25 10:59:51;;;;;;;5.77;2.10;;;;;;;21.14;67.19;100395.53;5028979;28;20286;-63
2023/06/25 11:02:24;;;;;;;8.57;2.30;;;;;;;21.06;67.13;100388.84;5038955;28;20493;-63
2023/06/25 11:04:58;;;;;;;4.67;2.10;;;;;;;21.09;67.15;100395.78;5027729;28;20295;-62
2023/06/25 11:07:32;;;;;;;6.70;1.90;;;;;;;21.05;67.15;100405.75;5038695;28;21080;-65
2023/06/25 11:10:03;;;;;;;2.53;1.73;;;;;;;20.99;67.09;100398.16;5028186;28;20274;-63
2023/06/25 11:12:38;;;;;;;2.70;1.50;;;;;;;20.99;66.87;100392.84;5034358;28;20287;-62
2023/06/25 11:15:10;;;;;;;3.87;2.00;;;;;;;20.94;66.98;100394.88;5042087;28;20279;-64
2023/06/25 11:17:42;;;;;;;2.97;1.60;;;;;;;20.91;67.26;100400.38;5032150;28;20309;-65
2023/06/25 11:20:14;;;;;;;8.80;1.87;;;;;;;20.79;67.18;100390.44;5041808;28;20376;-66
2023/06/25 11:22:47;;;;;;;4.27;2.10;;;;;;;20.79;67.30;100398.41;5032078;28;20301;-65
2023/06/25 11:25:21;;;;;;;3.90;1.90;;;;;;;20.71;67.60;100398.00;5041908;28;20355;-64
2023/06/25 11:28:06;;;;;;;6.53;1.60;;;;;;;20.66;68.01;100401.75;5031365;28;20283;-63
2023/06/25 11:30:43;;;;;;;3.47;1.90;;;;;;;20.63;68.30;100407.25;5031733;28;20684;-65
2023/06/25 11:33:18;;;;;;;7.67;2.00;;;;;;;20.57;68.15;100404.94;5041851;28;20291;-63
2023/06/25 11:35:51;;;;;;;7.17;1.67;;;;;;;20.58;68.49;100409.28;5032142;28;20287;-66
2023/06/25 11:38:32;;;;;;;3.40;1.90;;;;;;;20.58;68.50;100413.75;5041954;28;20309;-64
2023/06/25 11:41:03;;;;;;;4.33;1.60;;;;;;;20.48;68.85;100402.75;5031111;28;20283;-64
2023/06/25 11:43:36;;;;;;;3.27;2.10;;;;;;;20.41;68.98;100396.91;5037887;28;20278;-64
2023/06/25 11:46:11;;;;;;;5.90;1.83;;;;;;;20.40;69.38;100405.84;5041684;28;20310;-62
2023/06/25 11:48:53;;;;;;;3.17;1.77;;;;;;;20.31;69.88;100411.63;5030600;28;20403;-62
2023/06/25 11:51:25;;;;;;;2.27;1.50;;;;;;;20.23;70.30;100414.72;5041812;28;20373;-66
2023/06/25 11:53:58;;;;;;;1.70;1.50;;;;;;;20.19;70.27;100422.91;5031614;28;20278;-64
2023/06/25 11:56:30;;;;;;;4.40;1.60;;;;;;;20.19;70.34;100421.13;5042397;28;20282;-66